Cincinnati, Ohio
Traffic Map
Current Weather Conditions
Cincinnati, Ohio
Overcast
Overcast
46°
Feels Like: 44°
Wind Chill: 44° Ceiling: 9000
Heat Index: 46° Visibility: 10mi
Dew Point: 37° Wind: 5mph
Humidity: 71% Direction: 260° (W)
Pressure: 29.82in Gusts: 0mph
Raw Report DataKLUK 210753Z AUTO 26004KT 10SM SCT060 OVC090 08/03 A2982 RMK AO2 SLP099 T00780028
Traffic Incident Summary
Active as of:
Severity:
Category:
InformationThere was an issue retrieving the traffic information for this location. Please try a different location or try again shortly.
Advertisements
Track Severe Weather on mobile